Time;durP1;ratioP1;P1;durP2;ratioP2;P2;SDS_P1;SDS_P2;PMS_P1;PMS_P2;Temp;Humidity;BMP_temperature;BMP_pressure;BME280_temperature;BME280_humidity;BME280_pressure;Samples;Min_cycle;Max_cycle;Signal;HPM_P1;HPM_P2
2023/09/14 00:00:50;;;;;;;5.17;1.83;;;;;;;-145.18;100.00;46656.50;5087812;28;20181;-59
2023/09/14 00:03:15;;;;;;;4.33;1.70;;;;;;;-145.18;100.00;46650.63;5089282;28;20177;-59
2023/09/14 00:05:47;;;;;;;4.10;2.10;;;;;;;-145.18;100.00;46648.69;5086935;28;20125;-60
2023/09/14 00:08:13;;;;;;;5.90;2.10;;;;;;;-145.18;100.00;46650.63;5088306;28;20073;-60
2023/09/14 00:10:39;;;;;;;7.20;2.40;;;;;;;-145.18;100.00;46656.50;5086590;28;20027;-59
2023/09/14 00:13:05;;;;;;;7.73;2.00;;;;;;;-145.18;100.00;46650.63;5089493;28;20106;-58
2023/09/14 00:15:31;;;;;;;4.83;2.17;;;;;;;-145.18;100.00;46654.53;5087687;28;20751;-59
2023/09/14 00:17:57;;;;;;;5.83;1.83;;;;;;;-145.18;100.00;46648.69;5087325;28;20032;-59
2023/09/14 00:20:26;;;;;;;3.33;1.50;;;;;;;-145.18;100.00;46650.63;5088601;28;20028;-59
2023/09/14 00:22:52;;;;;;;6.57;1.90;;;;;;;-145.18;100.00;46644.78;5086992;28;20483;-60
2023/09/14 00:25:18;;;;;;;7.07;2.23;;;;;;;-145.18;100.00;46648.69;5089601;28;20028;-60
2023/09/14 00:27:43;;;;;;;6.50;1.93;;;;;;;-145.18;100.00;46648.69;5088781;28;20107;-59
2023/09/14 00:30:09;;;;;;;4.13;2.13;;;;;;;-145.18;100.00;46656.50;5088871;28;20035;-59
2023/09/14 00:32:39;;;;;;;8.23;2.27;;;;;;;-145.18;100.00;46646.72;5087414;28;20028;-60
2023/09/14 00:35:11;;;;;;;5.00;2.60;;;;;;;-145.18;100.00;46648.69;5090068;28;20032;-59
2023/09/14 00:37:38;;;;;;;9.30;2.43;;;;;;;-145.18;100.00;46650.63;5089683;28;20024;-60
2023/09/14 00:40:07;;;;;;;9.77;2.23;;;;;;;-145.18;100.00;46648.69;5091658;28;20395;-59
2023/09/14 00:42:42;;;;;;;9.50;2.60;;;;;;;-145.18;100.00;46652.59;5092714;28;20384;-60
2023/09/14 00:45:10;;;;;;;6.82;2.10;;;;;;;-145.18;100.00;46638.91;5092860;28;20024;-59
2023/09/14 00:47:38;;;;;;;8.43;2.67;;;;;;;-145.18;100.00;46644.78;5092817;28;20032;-59
2023/09/14 00:50:04;;;;;;;7.90;2.40;;;;;;;-145.18;100.00;46646.72;5092671;28;20118;-59
2023/09/14 00:52:35;;;;;;;9.50;2.13;;;;;;;-145.18;100.00;46650.63;5091625;28;20063;-60
2023/09/14 00:55:03;;;;;;;6.47;2.30;;;;;;;-145.18;100.00;46644.78;5092226;28;20032;-59
2023/09/14 00:57:29;;;;;;;7.80;2.53;;;;;;;-145.18;100.00;46644.78;5091459;28;20078;-60
2023/09/14 00:59:54;;;;;;;7.73;2.67;;;;;;;-145.18;100.00;46642.81;5091768;28;20395;-60
2023/09/14 01:02:20;;;;;;;12.20;2.63;;;;;;;-145.18;100.00;46646.72;5092436;28;20102;-60
2023/09/14 01:04:45;;;;;;;8.00;2.40;;;;;;;-145.18;100.00;46640.88;5095618;28;20036;-60
2023/09/14 01:07:11;;;;;;;5.90;2.20;;;;;;;-145.18;100.00;46648.69;5094855;28;20750;-60
2023/09/14 01:09:36;;;;;;;7.13;2.20;;;;;;;-145.18;100.00;46650.63;5091342;28;20496;-60
2023/09/14 01:12:03;;;;;;;6.17;2.57;;;;;;;-145.18;100.00;46646.72;5094008;28;20040;-60
2023/09/14 01:14:39;;;;;;;6.00;2.13;;;;;;;-145.18;100.00;46644.78;5091694;28;20038;-60
2023/09/14 01:17:26;;;;;;;8.50;2.60;;;;;;;-145.18;100.00;46650.63;5089327;28;20463;-59
2023/09/14 01:20:04;;;;;;;5.77;1.87;;;;;;;-145.18;100.00;46648.69;5091231;28;20039;-59
2023/09/14 01:22:55;;;;;;;11.87;2.77;;;;;;;-145.18;100.00;46642.81;5087625;28;20032;-59
2023/09/14 01:25:32;;;;;;;4.07;1.87;;;;;;;-145.18;100.00;46646.72;5081615;28;20040;-60
2023/09/14 01:28:11;;;;;;;11.77;2.40;;;;;;;-145.18;100.00;46642.81;5092426;28;20036;-59
2023/09/14 01:30:37;;;;;;;8.13;2.60;;;;;;;-145.18;100.00;46648.69;5090910;28;20085;-59
2023/09/14 01:33:09;;;;;;;4.77;2.50;;;;;;;-145.18;100.00;46650.63;5088902;28;20044;-59
2023/09/14 01:35:43;;;;;;;5.63;2.40;;;;;;;-145.18;100.00;46642.81;5090429;28;20361;-59
2023/09/14 01:38:09;;;;;;;6.93;2.70;;;;;;;-145.18;100.00;46644.78;5090457;28;20582;-66
2023/09/14 01:40:36;;;;;;;6.87;2.30;;;;;;;-145.18;100.00;46642.81;5092000;28;20028;-66
2023/09/14 01:43:05;;;;;;;4.43;1.80;;;;;;;-145.18;100.00;46644.78;5091223;28;20452;-66
2023/09/14 01:45:33;;;;;;;5.37;2.23;;;;;;;-145.18;100.00;46640.88;5089914;28;20031;-66
2023/09/14 01:48:00;;;;;;;6.47;2.50;;;;;;;-145.18;100.00;46640.88;5090140;28;20036;-67
2023/09/14 01:50:25;;;;;;;8.07;2.43;;;;;;;-145.18;100.00;46646.72;5088730;28;20226;-66
2023/09/14 01:52:52;;;;;;;8.27;2.60;;;;;;;-145.18;100.00;46642.81;5090653;28;20118;-67
2023/09/14 01:55:18;;;;;;;4.83;2.57;;;;;;;-145.18;100.00;46642.81;5088821;28;20112;-67
2023/09/14 01:57:43;;;;;;;5.63;2.13;;;;;;;-145.18;100.00;46640.88;5087680;28;20028;-66
2023/09/14 02:00:09;;;;;;;10.77;3.30;;;;;;;-145.18;100.00;46642.81;5092118;28;20032;-66
2023/09/14 02:02:34;;;;;;;3.30;1.90;;;;;;;-145.18;100.00;46644.78;5090707;28;20036;-66
2023/09/14 02:05:00;;;;;;;4.43;1.87;;;;;;;-145.18;100.00;46648.69;5088597;28;20114;-66
2023/09/14 02:07:25;;;;;;;5.10;1.90;;;;;;;-145.18;100.00;46644.78;5089462;28;20027;-66
2023/09/14 02:09:51;;;;;;;5.27;1.50;;;;;;;-145.18;100.00;46644.78;5090710;28;20123;-66
2023/09/14 02:12:17;;;;;;;4.20;2.00;;;;;;;-145.18;100.00;46640.88;5089709;28;20040;-66
2023/09/14 02:14:42;;;;;;;3.13;1.00;;;;;;;-145.18;100.00;46646.72;5089458;28;20020;-66
2023/09/14 02:17:08;;;;;;;4.07;1.50;;;;;;;-145.18;100.00;46640.88;5091972;28;20036;-66
2023/09/14 02:19:33;;;;;;;6.03;1.83;;;;;;;-145.18;100.00;46640.88;5089065;28;20395;-66
2023/09/14 02:21:58;;;;;;;6.37;1.90;;;;;;;-145.18;100.00;46638.91;5083437;28;20407;-66
2023/09/14 02:24:24;;;;;;;6.47;1.90;;;;;;;-145.18;100.00;46640.88;5090277;28;20032;-67
2023/09/14 02:26:51;;;;;;;4.07;1.90;;;;;;;-145.18;100.00;46644.78;5088036;28;20040;-67
2023/09/14 02:29:17;;;;;;;9.87;2.37;;;;;;;-145.18;100.00;46644.78;5088318;28;20445;-66
2023/09/14 02:31:43;;;;;;;5.80;2.20;;;;;;;-145.18;100.00;46660.41;5086800;28;20072;-66
2023/09/14 02:34:08;;;;;;;5.63;3.33;;;;;;;-145.18;100.00;46644.78;5091303;28;20063;-66
2023/09/14 02:36:33;;;;;;;5.83;1.97;;;;;;;-145.18;100.00;46642.81;5070389;28;20024;-66
2023/09/14 02:38:59;;;;;;;7.03;2.10;;;;;;;-145.18;100.00;46644.78;5088658;28;20110;-66
2023/09/14 02:41:24;;;;;;;5.73;1.83;;;;;;;-145.18;100.00;46642.81;5090019;28;20028;-66
2023/09/14 02:43:50;;;;;;;2.83;1.83;;;;;;;-145.18;100.00;46646.72;5090401;28;20040;-67
2023/09/14 02:46:15;;;;;;;5.97;2.03;;;;;;;-145.18;100.00;46640.88;5090692;28;20067;-66
2023/09/14 02:48:40;;;;;;;4.43;2.07;;;;;;;-145.18;100.00;46638.91;5085818;28;20396;-60
2023/09/14 02:51:06;;;;;;;5.40;2.23;;;;;;;-145.18;100.00;46640.88;5084632;28;20059;-59
2023/09/14 02:53:31;;;;;;;2.40;1.73;;;;;;;-145.18;100.00;46642.81;5089282;28;20107;-60
2023/09/14 02:55:57;;;;;;;1.73;1.40;;;;;;;-145.18;100.00;46644.78;5087706;28;20024;-60
2023/09/14 02:58:22;;;;;;;4.77;1.30;;;;;;;-145.18;100.00;46644.78;5087755;28;20039;-60
2023/09/14 03:00:48;;;;;;;5.43;1.97;;;;;;;-145.18;100.00;46642.81;5087895;28;20043;-59
2023/09/14 03:03:13;;;;;;;6.20;2.20;;;;;;;-145.18;100.00;46646.72;5090154;28;20395;-60
2023/09/14 03:05:39;;;;;;;4.47;1.70;;;;;;;-145.18;100.00;46644.78;5087971;28;20082;-60
2023/09/14 03:08:04;;;;;;;2.63;1.40;;;;;;;-145.18;100.00;46648.69;5088885;28;20047;-60
2023/09/14 03:10:30;;;;;;;7.33;2.17;;;;;;;-145.18;100.00;46642.81;5086628;28;20043;-59
2023/09/14 03:12:55;;;;;;;5.63;1.30;;;;;;;-145.18;100.00;46644.78;5090679;28;20044;-60
2023/09/14 03:15:21;;;;;;;3.90;1.67;;;;;;;-145.18;100.00;46642.81;5088688;28;20056;-60
2023/09/14 03:17:47;;;;;;;2.30;1.50;;;;;;;-145.18;100.00;46646.72;5087269;28;20127;-60
2023/09/14 03:20:12;;;;;;;5.13;1.70;;;;;;;-145.18;100.00;46642.81;5085647;28;20031;-60
2023/09/14 03:22:38;;;;;;;3.37;1.37;;;;;;;-145.18;100.00;46644.78;5089990;28;20047;-60
2023/09/14 03:25:03;;;;;;;3.57;1.40;;;;;;;-145.18;100.00;46642.81;5087318;28;20041;-60
2023/09/14 03:27:29;;;;;;;3.73;1.80;;;;;;;-145.18;100.00;46640.88;5089291;28;20399;-60
2023/09/14 03:29:54;;;;;;;3.17;1.80;;;;;;;-145.18;100.00;46642.81;5085430;28;20116;-60
2023/09/14 03:32:19;;;;;;;3.00;1.83;;;;;;;-145.18;100.00;46642.81;5090732;28;20161;-60
2023/09/14 03:34:45;;;;;;;4.77;1.83;;;;;;;-145.18;100.00;46640.88;5087743;28;20463;-60
2023/09/14 03:37:10;;;;;;;4.97;1.90;;;;;;;-145.18;100.00;46644.78;5089885;28;20109;-60
2023/09/14 03:39:36;;;;;;;4.93;2.80;;;;;;;-145.18;100.00;46642.81;5086021;28;20107;-60
2023/09/14 03:42:01;;;;;;;4.93;2.10;;;;;;;-145.18;100.00;46638.91;5090392;28;20028;-60
2023/09/14 03:44:27;;;;;;;3.40;1.50;;;;;;;-145.18;100.00;46646.72;5088128;28;20032;-59
2023/09/14 03:46:52;;;;;;;6.27;1.90;;;;;;;-145.18;100.00;46646.72;5089946;28;20036;-60
2023/09/14 03:49:17;;;;;;;7.43;2.67;;;;;;;-145.18;100.00;46642.81;5087170;28;20508;-59
2023/09/14 03:51:43;;;;;;;8.23;3.23;;;;;;;-145.18;100.00;46640.88;5089055;28;20024;-59
2023/09/14 03:54:08;;;;;;;7.33;3.10;;;;;;;-145.18;100.00;46636.94;5089071;28;20161;-60
2023/09/14 03:56:34;;;;;;;7.53;2.70;;;;;;;-145.18;100.00;46636.94;5088648;28;20055;-60
2023/09/14 03:59:00;;;;;;;3.10;1.93;;;;;;;-145.18;100.00;46638.91;5086826;28;20038;-60
2023/09/14 04:01:25;;;;;;;3.20;1.90;;;;;;;-145.18;100.00;46660.41;5088739;28;20036;-59
2023/09/14 04:03:50;;;;;;;2.93;1.53;;;;;;;-145.18;100.00;46660.41;5088750;28;20158;-59
2023/09/14 04:06:16;;;;;;;4.30;2.10;;;;;;;-145.18;100.00;46636.94;5088539;28;20036;-59
2023/09/14 04:08:41;;;;;;;3.70;2.17;;;;;;;-145.18;100.00;46636.94;5087436;28;20040;-59
2023/09/14 04:11:07;;;;;;;3.97;2.10;;;;;;;-145.18;100.00;46635.00;5094277;28;20040;-60
2023/09/14 04:13:34;;;;;;;6.23;1.80;;;;;;;-145.18;100.00;46636.94;5091013;28;20042;-60
2023/09/14 04:16:02;;;;;;;3.63;2.07;;;;;;;-145.18;100.00;46638.91;5094006;28;20502;-60
2023/09/14 04:18:28;;;;;;;6.27;2.47;;;;;;;-145.18;100.00;46638.91;5092623;28;20035;-60
2023/09/14 04:20:54;;;;;;;3.27;2.00;;;;;;;-145.18;100.00;46638.91;5091769;28;20040;-60
2023/09/14 04:23:20;;;;;;;5.50;1.50;;;;;;;-145.18;100.00;46635.00;5093008;28;20032;-60
2023/09/14 04:25:47;;;;;;;3.23;1.60;;;;;;;-145.18;100.00;46633.06;5092111;28;20086;-60
2023/09/14 04:28:17;;;;;;;2.20;1.40;;;;;;;-145.18;100.00;46660.41;5093108;28;20032;-60
2023/09/14 04:30:44;;;;;;;3.80;2.13;;;;;;;-145.18;100.00;46633.06;5092466;28;20028;-60
2023/09/14 04:33:11;;;;;;;6.60;2.10;;;;;;;-145.18;100.00;46640.88;5089594;28;20055;-60
2023/09/14 04:35:37;;;;;;;3.63;1.77;;;;;;;-145.18;100.00;46660.41;5091064;28;20036;-60
2023/09/14 04:38:02;;;;;;;4.87;1.60;;;;;;;-145.18;100.00;46636.94;5096322;28;20027;-60
2023/09/14 04:40:27;;;;;;;5.20;1.63;;;;;;;-145.18;100.00;46640.88;5094042;28;20475;-60
2023/09/14 04:42:53;;;;;;;4.50;2.03;;;;;;;-145.18;100.00;46640.88;5092461;28;20131;-60
2023/09/14 04:45:18;;;;;;;8.20;2.13;;;;;;;-145.18;100.00;46644.78;5087411;27;20064;-60
2023/09/14 04:47:43;;;;;;;4.03;2.03;;;;;;;-145.18;100.00;46638.91;5082302;28;20029;-60
2023/09/14 04:50:09;;;;;;;2.90;2.00;;;;;;;-145.18;100.00;46636.94;5084105;28;20529;-60
2023/09/14 04:52:34;;;;;;;4.13;2.17;;;;;;;-145.18;100.00;46636.94;5083510;28;20074;-60
2023/09/14 04:55:00;;;;;;;6.53;2.30;;;;;;;-145.18;100.00;46640.88;5084213;28;20383;-60
2023/09/14 04:57:25;;;;;;;5.67;2.07;;;;;;;-145.18;100.00;46644.78;5083823;28;20040;-59
2023/09/14 04:59:50;;;;;;;4.67;2.53;;;;;;;-145.18;100.00;46642.81;5083916;28;20111;-60
2023/09/14 05:02:16;;;;;;;4.87;1.67;;;;;;;-145.18;100.00;46640.88;5084724;28;20111;-60
2023/09/14 05:04:41;;;;;;;2.90;1.23;;;;;;;-145.18;100.00;46644.78;5080129;28;20029;-60
2023/09/14 05:07:07;;;;;;;5.47;2.33;;;;;;;-145.18;100.00;46646.72;5086185;28;20020;-60
2023/09/14 05:09:32;;;;;;;2.57;1.70;;;;;;;-145.18;100.00;46644.78;5088172;28;20028;-67
2023/09/14 05:11:57;;;;;;;6.20;2.60;;;;;;;-145.18;100.00;46646.72;5093304;28;20394;-67
2023/09/14 05:14:23;;;;;;;7.07;2.70;;;;;;;-145.18;100.00;46640.88;5086088;28;20036;-67
2023/09/14 05:16:48;;;;;;;11.47;2.37;;;;;;;-145.18;100.00;46644.78;5092016;28;20027;-67
2023/09/14 05:19:13;;;;;;;1.93;1.13;;;;;;;-145.18;100.00;46646.72;5080607;28;20102;-68
2023/09/14 05:21:39;;;;;;;2.37;1.10;;;;;;;-145.18;100.00;46644.78;5091311;28;20024;-67
2023/09/14 05:24:04;;;;;;;3.13;1.63;;;;;;;-145.18;100.00;46642.81;5079352;28;20432;-67
2023/09/14 05:26:30;;;;;;;2.43;1.57;;;;;;;-145.18;100.00;46640.88;5089675;28;20069;-67
2023/09/14 05:28:55;;;;;;;6.13;1.90;;;;;;;-145.18;100.00;46640.88;5086411;28;20051;-67
2023/09/14 05:31:20;;;;;;;5.87;2.33;;;;;;;-145.18;100.00;46640.88;5082876;28;20024;-67
2023/09/14 05:33:46;;;;;;;2.13;1.70;;;;;;;-145.18;100.00;46638.91;5085690;28;20052;-67
2023/09/14 05:36:11;;;;;;;3.60;2.00;;;;;;;-145.18;100.00;46642.81;5082834;28;20036;-67
2023/09/14 05:38:36;;;;;;;3.67;1.90;;;;;;;-145.18;100.00;46644.78;5085237;28;20434;-67
2023/09/14 05:41:03;;;;;;;4.07;1.70;;;;;;;-145.18;100.00;46638.91;5086758;28;20062;-68
2023/09/14 05:43:28;;;;;;;5.43;2.20;;;;;;;-145.18;100.00;46636.94;5086089;28;20028;-67
2023/09/14 05:45:54;;;;;;;7.63;2.30;;;;;;;-145.18;100.00;46636.94;5088610;28;20479;-68
2023/09/14 05:48:20;;;;;;;4.63;2.70;;;;;;;-145.18;100.00;46640.88;5077207;28;20498;-68
2023/09/14 05:50:45;;;;;;;5.83;2.77;;;;;;;-145.18;100.00;46640.88;5089716;28;20063;-68
2023/09/14 05:53:10;;;;;;;7.17;3.13;;;;;;;-145.18;100.00;46635.00;5092168;28;20039;-67
2023/09/14 05:55:36;;;;;;;7.40;3.67;;;;;;;-145.18;100.00;46640.88;5092072;28;20043;-68
2023/09/14 05:58:01;;;;;;;9.23;3.60;;;;;;;-145.18;100.00;46635.00;5092655;28;20036;-68
2023/09/14 06:00:26;;;;;;;7.53;3.87;;;;;;;-145.18;100.00;46635.00;5091668;28;20403;-67
2023/09/14 06:02:52;;;;;;;10.63;4.37;;;;;;;-145.18;100.00;46633.06;5092439;28;20051;-68
2023/09/14 06:05:18;;;;;;;13.20;4.37;;;;;;;-145.18;100.00;46636.94;5088989;28;20040;-68
2023/09/14 06:07:44;;;;;;;10.30;4.13;;;;;;;-145.18;100.00;46635.00;5089475;28;20481;-67
2023/09/14 06:10:09;;;;;;;14.00;4.03;;;;;;;-145.18;100.00;46633.06;5085019;28;20040;-68
2023/09/14 06:12:35;;;;;;;10.63;3.50;;;;;;;-145.18;100.00;46631.09;5095113;28;20079;-67
2023/09/14 06:15:00;;;;;;;7.50;3.40;;;;;;;-145.18;100.00;46635.00;5074269;28;20409;-67
2023/09/14 06:17:25;;;;;;;8.77;3.70;;;;;;;-145.18;100.00;46631.09;5087847;28;20032;-67
2023/09/14 06:19:51;;;;;;;7.77;3.87;;;;;;;-145.18;100.00;46629.13;5072968;28;20032;-60
2023/09/14 06:22:16;;;;;;;13.23;4.10;;;;;;;-145.18;100.00;46631.09;5073421;28;20480;-60
2023/09/14 06:24:42;;;;;;;9.03;3.40;;;;;;;-145.18;100.00;46629.13;5081350;28;20457;-60
2023/09/14 06:27:08;;;;;;;12.53;3.93;;;;;;;-145.18;100.00;46631.09;5087147;28;20074;-60
2023/09/14 06:29:34;;;;;;;8.40;3.73;;;;;;;-145.18;100.00;46631.09;5087065;28;20052;-60
2023/09/14 06:31:59;;;;;;;12.67;4.20;;;;;;;-145.18;100.00;46629.13;5088212;28;20085;-60
2023/09/14 06:34:25;;;;;;;10.43;4.30;;;;;;;-145.18;100.00;46635.00;5085232;28;20097;-60
2023/09/14 06:36:50;;;;;;;11.43;4.30;;;;;;;-145.18;100.00;46629.13;5092597;28;20045;-60
2023/09/14 06:39:16;;;;;;;11.80;4.10;;;;;;;-145.18;100.00;46629.13;5084079;28;20078;-60
2023/09/14 06:41:41;;;;;;;12.00;4.57;;;;;;;-145.18;100.00;46623.28;5085321;28;20055;-60
2023/09/14 06:44:06;;;;;;;13.83;4.80;;;;;;;-145.18;100.00;46623.28;5088355;28;20107;-60
2023/09/14 06:46:32;;;;;;;13.40;4.17;;;;;;;-145.18;100.00;46619.38;5091867;28;20119;-60
2023/09/14 06:48:57;;;;;;;11.70;4.60;;;;;;;-145.18;100.00;46625.22;5095144;28;20032;-60
2023/09/14 06:51:23;;;;;;;12.53;4.63;;;;;;;-145.18;100.00;46623.28;5091874;28;20055;-60
2023/09/14 06:53:50;;;;;;;17.67;5.67;;;;;;;-145.18;100.00;46617.41;5089448;28;20024;-60
2023/09/14 06:56:15;;;;;;;15.73;4.27;;;;;;;-145.18;100.00;46621.31;5089455;28;20050;-60
2023/09/14 06:58:41;;;;;;;12.80;4.90;;;;;;;-145.18;100.00;46619.38;5095678;28;20578;-60
2023/09/14 07:01:07;;;;;;;8.77;4.27;;;;;;;-145.18;100.00;46623.28;5091614;28;20114;-60
2023/09/14 07:03:34;;;;;;;14.73;4.97;;;;;;;-145.18;100.00;46619.38;5091227;28;20103;-60
2023/09/14 07:06:00;;;;;;;10.20;4.60;;;;;;;-145.18;100.00;46617.41;5091456;28;20078;-60
2023/09/14 07:08:25;;;;;;;14.17;5.00;;;;;;;-145.18;100.00;46617.41;5086753;28;20039;-60
2023/09/14 07:10:51;;;;;;;19.97;4.77;;;;;;;-145.18;100.00;46619.38;5078590;28;20028;-60
2023/09/14 07:13:18;;;;;;;9.90;4.43;;;;;;;-145.18;100.00;46611.56;5094877;28;20032;-60
2023/09/14 07:15:43;;;;;;;16.83;5.60;;;;;;;-145.18;100.00;46617.41;5087204;28;20049;-60
2023/09/14 07:18:11;;;;;;;12.70;5.37;;;;;;;-145.18;100.00;46615.47;5092098;28;20028;-60
2023/09/14 07:20:36;;;;;;;11.10;5.27;;;;;;;-145.18;100.00;46619.38;5090124;28;20650;-60
2023/09/14 07:23:02;;;;;;;16.33;6.33;;;;;;;-145.18;100.00;46617.41;5087539;28;20032;-60
2023/09/14 07:25:28;;;;;;;10.70;5.20;;;;;;;-145.18;100.00;46615.47;5085722;28;20051;-60
2023/09/14 07:27:54;;;;;;;13.00;5.87;;;;;;;-145.18;100.00;46619.38;5080571;28;20064;-68
2023/09/14 07:30:19;;;;;;;13.53;4.93;;;;;;;-145.18;100.00;46623.28;5089437;28;20086;-69
2023/09/14 07:32:44;;;;;;;9.90;5.40;;;;;;;-145.18;100.00;46621.31;5088124;28;20032;-68
2023/09/14 07:35:11;;;;;;;20.83;6.20;;;;;;;-145.18;100.00;46621.31;5089754;28;20115;-68
2023/09/14 07:37:37;;;;;;;17.23;6.80;;;;;;;-145.18;100.00;46613.50;5086169;28;20031;-68
2023/09/14 07:40:03;;;;;;;9.53;5.40;;;;;;;-145.18;100.00;46617.41;5094709;28;20035;-68
2023/09/14 07:42:29;;;;;;;12.37;5.90;;;;;;;-145.18;100.00;46623.28;5084102;28;20020;-68
2023/09/14 07:44:54;;;;;;;14.93;6.23;;;;;;;-145.18;100.00;46621.31;5082517;28;20484;-68
2023/09/14 07:47:20;;;;;;;12.57;6.10;;;;;;;-145.18;100.00;46621.31;5090290;28;20464;-68
2023/09/14 07:49:45;;;;;;;15.60;6.80;;;;;;;-145.18;100.00;46623.28;5088240;28;20113;-68
2023/09/14 07:52:11;;;;;;;16.77;6.63;;;;;;;-145.18;100.00;46623.28;5087937;28;20051;-68
2023/09/14 07:54:36;;;;;;;17.87;6.33;;;;;;;-145.18;100.00;46627.19;5101679;28;20027;-68
2023/09/14 07:57:02;;;;;;;12.30;6.77;;;;;;;-145.18;100.00;46621.31;5099568;28;20505;-68
2023/09/14 07:59:28;;;;;;;17.40;7.47;;;;;;;-145.18;100.00;46625.22;5095253;28;20051;-68
2023/09/14 08:01:53;;;;;;;16.90;6.43;;;;;;;-145.18;100.00;46623.28;5097485;28;20036;-68
2023/09/14 08:04:18;;;;;;;12.47;6.80;;;;;;;-145.18;100.00;46623.28;5093299;28;20498;-68
2023/09/14 08:06:44;;;;;;;16.33;6.93;;;;;;;-145.18;100.00;46625.22;5094190;28;20056;-68
2023/09/14 08:09:09;;;;;;;19.80;6.33;;;;;;;-145.18;100.00;46631.09;5092011;28;20418;-69
2023/09/14 08:11:36;;;;;;;17.90;7.07;;;;;;;-145.18;100.00;46636.94;5094902;28;20103;-69
2023/09/14 08:14:02;;;;;;;13.20;6.57;;;;;;;-145.18;100.00;46633.06;5089042;28;20569;-68
2023/09/14 08:16:30;;;;;;;12.47;7.17;;;;;;;-145.18;100.00;46636.94;5088983;28;20115;-68
2023/09/14 08:18:56;;;;;;;17.90;7.73;;;;;;;-145.18;100.00;46636.94;5119417;27;20032;-69
2023/09/14 08:21:22;;;;;;;9.87;6.13;;;;;;;-145.18;100.00;46640.88;5087896;28;20464;-69
2023/09/14 08:23:47;;;;;;;12.80;7.10;;;;;;;-145.18;100.00;46644.78;5086953;28;20103;-69
2023/09/14 08:26:12;;;;;;;14.00;6.67;;;;;;;-145.18;100.00;46640.88;5083964;28;20410;-68
2023/09/14 08:28:38;;;;;;;9.53;6.27;;;;;;;-145.18;100.00;46644.78;5101410;28;20032;-68
2023/09/14 08:31:03;;;;;;;14.67;6.47;;;;;;;-145.18;100.00;46642.81;5082940;28;20040;-69
2023/09/14 08:33:29;;;;;;;14.90;6.47;;;;;;;-145.18;100.00;46640.88;5096516;28;20143;-69
2023/09/14 08:35:55;;;;;;;14.37;6.57;;;;;;;-145.18;100.00;46644.78;5095775;28;20029;-69
2023/09/14 08:38:21;;;;;;;13.53;6.67;;;;;;;-145.18;100.00;46642.81;5091799;28;20036;-68
2023/09/14 08:40:51;;;;;;;12.30;6.53;;;;;;;-145.18;100.00;46648.69;5081847;28;20454;-69
2023/09/14 08:43:18;;;;;;;13.07;6.63;;;;;;;-145.18;100.00;46646.72;5093315;28;20047;-69
2023/09/14 08:45:45;;;;;;;14.50;6.67;;;;;;;-145.18;100.00;46644.78;5088750;28;20039;-69
2023/09/14 08:48:13;;;;;;;14.37;6.23;;;;;;;-145.18;100.00;46648.69;5089334;28;20115;-68
2023/09/14 08:50:40;;;;;;;18.23;6.07;;;;;;;-145.18;100.00;46648.69;5085865;28;20028;-68
2023/09/14 08:53:06;;;;;;;14.07;6.00;;;;;;;-145.18;100.00;46650.63;5092057;28;20032;-68
2023/09/14 08:55:34;;;;;;;15.00;6.30;;;;;;;-145.18;100.00;46650.63;5090591;28;20501;-69
2023/09/14 08:58:00;;;;;;;14.97;6.93;;;;;;;-145.18;100.00;46648.69;5091654;28;20040;-68
2023/09/14 09:00:28;;;;;;;15.57;7.00;;;;;;;-145.18;100.00;46650.63;5085741;28;20111;-68
2023/09/14 09:02:54;;;;;;;12.77;8.23;;;;;;;-145.18;100.00;46666.25;5094196;28;20036;-69
2023/09/14 09:05:21;;;;;;;15.10;6.90;;;;;;;-145.18;100.00;46662.34;5095063;28;20039;-68
2023/09/14 09:07:48;;;;;;;19.37;6.97;;;;;;;-145.18;100.00;46666.25;5086932;28;20039;-69
2023/09/14 09:10:23;;;;;;;13.33;5.50;;;;;;;-145.18;100.00;46668.22;5082505;28;20046;-68
2023/09/14 09:13:15;;;;;;;11.15;5.43;;;;;;;-145.18;100.00;46672.13;5099403;28;20023;-68
2023/09/14 09:15:40;;;;;;;12.27;5.83;;;;;;;-145.18;100.00;46672.13;5081417;28;20024;-68
2023/09/14 09:18:05;;;;;;;12.70;5.10;;;;;;;-145.18;100.00;46677.97;5084070;28;20625;-68
2023/09/14 09:20:32;;;;;;;10.77;4.60;;;;;;;-145.18;100.00;46676.03;5090166;28;20040;-68
2023/09/14 09:23:01;;;;;;;13.77;6.37;;;;;;;-145.18;100.00;46674.06;5090488;28;20024;-69
2023/09/14 09:25:29;;;;;;;15.13;5.83;;;;;;;-145.18;100.00;46676.03;5085450;28;20040;-68
2023/09/14 09:27:59;;;;;;;17.60;5.47;;;;;;;-145.18;100.00;46681.88;5081386;28;20039;-69
2023/09/14 09:30:32;;;;;;;9.93;5.07;;;;;;;-145.18;100.00;46676.03;5087575;28;20054;-69
2023/09/14 09:32:58;;;;;;;8.70;4.40;;;;;;;-145.18;100.00;46650.63;5086665;28;20079;-68
2023/09/14 09:35:25;;;;;;;11.70;5.27;;;;;;;-145.18;100.00;46635.00;5081011;28;20023;-69
2023/09/14 09:37:53;;;;;;;11.03;5.30;;;;;;;-145.18;100.00;46586.16;5092191;28;20047;-68
2023/09/14 09:40:33;;;;;;;7.77;4.77;;;;;;;-145.18;100.00;46560.78;5091075;28;20024;-69
2023/09/14 09:43:07;;;;;;;7.93;4.97;;;;;;;-145.18;100.00;46549.06;5088489;28;20024;-69
2023/09/14 09:45:33;;;;;;;9.60;5.27;;;;;;;-145.18;100.00;46551.00;5091343;28;20028;-69
2023/09/14 09:48:01;;;;;;;11.43;5.17;;;;;;;-145.18;100.00;46543.19;5090130;28;20077;-61
2023/09/14 09:50:28;;;;;;;10.90;5.40;;;;;;;-145.18;100.00;46554.91;5093528;28;20023;-61
2023/09/14 09:52:53;;;;;;;10.87;5.63;;;;;;;-145.18;100.00;46554.91;5080121;28;20036;-60
2023/09/14 09:55:24;;;;;;;11.33;5.33;;;;;;;-145.18;100.00;46551.00;5088019;28;20027;-60
2023/09/14 09:57:51;;;;;;;11.20;5.00;;;;;;;-145.18;100.00;46549.06;5086724;28;20016;-60
2023/09/14 10:00:19;;;;;;;9.97;5.80;;;;;;;-145.18;100.00;46543.19;5087208;28;20538;-61
2023/09/14 10:02:46;;;;;;;8.50;4.10;;;;;;;-145.18;100.00;46543.19;5085363;28;20533;-60
2023/09/14 10:05:11;;;;;;;7.87;4.33;;;;;;;-145.18;100.00;46560.78;5088298;28;20024;-60
2023/09/14 10:07:41;;;;;;;6.77;3.77;;;;;;;-145.18;100.00;46562.72;5092523;28;20074;-60
2023/09/14 10:10:11;;;;;;;7.13;3.53;;;;;;;-145.18;100.00;46580.31;5083197;28;20040;-60
2023/09/14 10:12:40;;;;;;;9.03;3.77;;;;;;;-145.18;100.00;46574.44;5084982;28;20023;-60
2023/09/14 10:15:08;;;;;;;9.23;4.53;;;;;;;-145.18;100.00;46547.09;5090331;28;20032;-60
2023/09/14 10:17:33;;;;;;;10.13;4.73;;;;;;;-145.18;100.00;46552.97;5097647;28;20030;-60
2023/09/14 10:20:00;;;;;;;8.00;4.20;;;;;;;-145.18;100.00;46511.94;5078845;28;20115;-60
2023/09/14 10:22:27;;;;;;;9.13;4.60;;;;;;;-145.18;100.00;46638.91;5092793;28;20020;-61
2023/09/14 10:24:55;;;;;;;8.10;4.80;;;;;;;-145.18;100.00;47150.72;5086586;28;20476;-61
2023/09/14 10:27:21;;;;;;;8.33;4.10;;;;;;;-145.18;100.00;47174.16;5082215;28;20035;-60
2023/09/14 10:29:47;;;;;;;8.43;4.33;;;;;;;-145.18;100.00;47150.72;5087152;28;20028;-60
2023/09/14 10:32:15;;;;;;;9.87;5.23;;;;;;;-145.18;100.00;47090.16;5089837;28;20710;-61
2023/09/14 10:34:41;;;;;;;9.23;4.33;;;;;;;-145.18;100.00;47185.88;5090584;28;20055;-60
2023/09/14 10:37:09;;;;;;;6.13;3.90;;;;;;;-145.18;100.00;47166.34;5094654;28;20139;-60
2023/09/14 10:39:36;;;;;;;8.57;3.93;;;;;;;-145.18;100.00;47174.16;5087000;28;20084;-61
2023/09/14 10:42:02;;;;;;;9.03;4.00;;;;;;;-145.18;100.00;46904.56;5088780;28;20077;-60
2023/09/14 10:44:30;;;;;;;5.97;3.63;;;;;;;-145.18;100.00;46615.47;5084834;28;20032;-60
2023/09/14 10:46:59;;;;;;;6.13;3.60;;;;;;;-145.18;100.00;46588.13;5095607;28;20399;-61
2023/09/14 10:49:31;;;;;;;9.70;4.17;;;;;;;-145.18;100.00;46595.94;5085556;28;20041;-60
2023/09/14 10:51:56;;;;;;;9.00;4.17;;;;;;;-145.18;100.00;46619.38;5092041;28;20101;-60
2023/09/14 10:54:25;;;;;;;7.10;3.60;;;;;;;-145.18;100.00;46793.22;5079894;28;20119;-60
2023/09/14 10:57:01;;;;;;;8.20;4.20;;;;;;;-145.18;100.00;47070.63;5088494;28;20131;-60
2023/09/14 10:59:52;;;;;;;7.80;3.50;;;;;;;-145.18;100.00;46726.81;5086606;28;20088;-61
2023/09/14 11:02:37;;;;;;;8.90;3.60;;;;;;;-145.18;100.00;46636.94;5087785;28;20035;-60
2023/09/14 11:05:12;;;;;;;7.43;3.47;;;;;;;-145.18;100.00;46961.22;5087616;28;20072;-60